createdAt,value
2023-03-17T00:01:06.064Z,96788.81
2023-03-17T00:03:13.907Z,96788.25
2023-03-17T00:05:22.719Z,96791.38
2023-03-17T00:07:27.918Z,96784.53
2023-03-17T00:09:32.952Z,96784.00
2023-03-17T00:11:37.798Z,96778.75
2023-03-17T00:13:42.615Z,96770.88
2023-03-17T00:15:48.209Z,96769.06
2023-03-17T00:17:58.359Z,96771.66
2023-03-17T00:20:03.797Z,96769.28
2023-03-17T00:22:17.907Z,96762.72
2023-03-17T00:24:22.606Z,96765.56
2023-03-17T00:26:27.881Z,96758.19
2023-03-17T00:28:32.574Z,96758.19
2023-03-17T00:30:37.651Z,96762.66
2023-03-17T00:32:42.895Z,96757.41
2023-03-17T00:34:50.300Z,96751.88
2023-03-17T00:36:56.194Z,96752.91
2023-03-17T00:39:02.369Z,96747.91
2023-03-17T00:41:07.616Z,96743.16
2023-03-17T00:43:12.789Z,96748.41
2023-03-17T00:45:18.867Z,96748.41
2023-03-17T00:47:23.830Z,96752.06
2023-03-17T00:49:29.313Z,96748.91
2023-03-17T00:51:36.817Z,96744.94
2023-03-17T00:53:42.043Z,96741.75
2023-03-17T00:55:48.664Z,96741.22
2023-03-17T00:57:55.162Z,96731.25
2023-03-17T00:59:59.970Z,96735.16
2023-03-17T01:02:05.280Z,96733.56
2023-03-17T01:04:12.438Z,96721.75
2023-03-17T01:06:18.812Z,96722.00
2023-03-17T01:08:26.981Z,96717.22
2023-03-17T01:10:32.797Z,96713.28
2023-03-17T01:12:38.277Z,96706.97
2023-03-17T01:14:43.824Z,96705.88
2023-03-17T01:16:50.584Z,96699.03
2023-03-17T01:18:55.787Z,96700.09
2023-03-17T01:21:00.864Z,96696.91
2023-03-17T01:23:05.916Z,96696.13
2023-03-17T01:25:14.989Z,96697.97
2023-03-17T01:27:21.003Z,96695.88
2023-03-17T01:29:25.879Z,96691.66
2023-03-17T01:31:30.808Z,96678.56
2023-03-17T01:33:36.614Z,96685.91
2023-03-17T01:35:42.381Z,96679.31
2023-03-17T01:37:47.928Z,96676.16
2023-03-17T01:39:52.738Z,96672.19
2023-03-17T01:42:02.082Z,96671.88
2023-03-17T01:44:07.617Z,96678.97
2023-03-17T01:46:28.181Z,96673.19
2023-03-17T01:48:37.390Z,96671.84
2023-03-17T01:50:42.734Z,96672.09
2023-03-17T01:52:48.145Z,96662.66
2023-03-17T01:54:57.270Z,96664.72
2023-03-17T01:57:10.579Z,96662.03
2023-03-17T01:59:21.399Z,96652.56
2023-03-17T02:01:32.225Z,96654.06
2023-03-17T02:03:37.214Z,96651.94
2023-03-17T02:05:43.209Z,96650.59
2023-03-17T02:07:48.522Z,96657.38
2023-03-17T02:09:54.083Z,96657.06
2023-03-17T02:12:01.586Z,96651.56
2023-03-17T02:14:09.286Z,96644.16
2023-03-17T02:16:17.700Z,96645.22
2023-03-17T02:18:26.003Z,96642.84
2023-03-17T02:21:13.009Z,96643.78
2023-03-17T02:23:25.092Z,96644.53
2023-03-17T02:25:33.435Z,96649.22
2023-03-17T02:27:44.684Z,96641.63
2023-03-17T02:29:50.966Z,96635.03
2023-03-17T02:31:56.298Z,96631.06
2023-03-17T02:34:00.960Z,96630.78
2023-03-17T02:36:06.087Z,96631.03
2023-03-17T02:38:11.220Z,96634.91
2023-03-17T02:40:18.817Z,96630.72
2023-03-17T02:42:23.792Z,96633.56
2023-03-17T02:44:28.822Z,96626.53
2023-03-17T02:46:33.898Z,96628.34
2023-03-17T02:48:39.633Z,96629.94
2023-03-17T02:50:44.424Z,96623.91
2023-03-17T02:52:49.222Z,96624.94
2023-03-17T02:54:54.196Z,96634.59
2023-03-17T02:57:01.933Z,96631.69
2023-03-17T02:59:07.615Z,96628.81
2023-03-17T03:01:13.229Z,96638.75
2023-03-17T03:03:18.162Z,96627.72
2023-03-17T03:05:23.263Z,96626.94
2023-03-17T03:07:27.990Z,96622.50
2023-03-17T03:09:33.074Z,96623.75
2023-03-17T03:11:37.953Z,96622.97
2023-03-17T03:13:45.485Z,96616.16
2023-03-17T03:15:50.754Z,96613.06
2023-03-17T03:17:55.492Z,96604.97
2023-03-17T03:20:00.244Z,96607.34
2023-03-17T03:22:05.140Z,96602.38
2023-03-17T03:24:11.044Z,96607.59
2023-03-17T03:26:15.870Z,96605.44
2023-03-17T03:28:20.705Z,96604.91
2023-03-17T03:30:28.810Z,96596.75
2023-03-17T03:32:34.062Z,96600.41
2023-03-17T03:34:39.132Z,96594.38
2023-03-17T03:36:44.142Z,96598.28
2023-03-17T03:38:49.430Z,96596.69
2023-03-17T03:40:54.205Z,96602.94
2023-03-17T03:42:58.928Z,96604.00
2023-03-17T03:45:03.774Z,96602.66
2023-03-17T03:47:12.332Z,96614.94
2023-03-17T03:49:17.166Z,96617.56
2023-03-17T03:51:22.371Z,96614.13
2023-03-17T03:53:27.285Z,96619.69
2023-03-17T03:55:32.580Z,96617.06
2023-03-17T03:57:37.702Z,96620.47
2023-03-17T03:59:42.588Z,96601.63
2023-03-17T04:01:47.442Z,96613.91
2023-03-17T04:03:55.371Z,96615.72
2023-03-17T04:06:00.155Z,96611.53
2023-03-17T04:08:05.228Z,96609.97
2023-03-17T04:10:11.999Z,96624.06
2023-03-17T04:12:17.060Z,96620.88
2023-03-17T04:14:21.852Z,96614.09
2023-03-17T04:16:27.197Z,96611.47
2023-03-17T04:18:32.008Z,96616.94
2023-03-17T04:20:39.389Z,96601.94
2023-03-17T04:22:44.535Z,96604.81
2023-03-17T04:24:49.630Z,96600.06
2023-03-17T04:26:54.654Z,96603.72
2023-03-17T04:28:59.505Z,96604.50
2023-03-17T04:31:04.636Z,96602.13
2023-03-17T04:33:09.625Z,96603.16
2023-03-17T04:35:17.472Z,96591.91
2023-03-17T04:37:25.344Z,96590.31
2023-03-17T04:39:31.001Z,96588.72
2023-03-17T04:41:35.964Z,96587.94
2023-03-17T04:43:41.421Z,96591.06
2023-03-17T04:45:46.245Z,96592.06
2023-03-17T04:47:51.115Z,96595.75
2023-03-17T04:49:55.863Z,96592.56
2023-03-17T04:52:00.880Z,96592.81
2023-03-17T04:54:08.614Z,96594.63
2023-03-17T04:56:14.173Z,96597.78
2023-03-17T04:58:29.830Z,96605.38
2023-03-17T05:00:38.914Z,96606.19
2023-03-17T05:02:44.291Z,96614.34
2023-03-17T05:04:49.476Z,96613.56
2023-03-17T05:06:54.253Z,96609.59
2023-03-17T05:08:59.254Z,96604.59
2023-03-17T05:11:06.741Z,96604.28
2023-03-17T05:13:11.722Z,96603.50
2023-03-17T05:15:16.604Z,96599.28
2023-03-17T05:17:21.568Z,96596.63
2023-03-17T05:19:27.065Z,96597.09
2023-03-17T05:21:32.177Z,96599.97
2023-03-17T05:23:37.243Z,96594.16
2023-03-17T05:25:42.719Z,96597.59
2023-03-17T05:27:50.229Z,96609.84
2023-03-17T05:29:56.103Z,96600.66
2023-03-17T05:32:01.313Z,96601.94
2023-03-17T05:34:07.297Z,96601.94
2023-03-17T05:36:12.323Z,96596.38
2023-03-17T05:38:18.125Z,96597.63
2023-03-17T05:40:23.975Z,96590.53
2023-03-17T05:42:28.865Z,96591.78
2023-03-17T05:44:36.915Z,96596.22
2023-03-17T05:46:42.178Z,96592.03
2023-03-17T05:48:47.183Z,96595.69
2023-03-17T05:50:52.212Z,96590.47
2023-03-17T05:52:57.026Z,96589.41
2023-03-17T05:55:03.783Z,96591.00
2023-03-17T05:57:08.658Z,96582.13
2023-03-17T05:59:15.239Z,96584.50
2023-03-17T06:01:22.889Z,96593.72
2023-03-17T06:03:27.739Z,96593.53
2023-03-17T06:05:33.272Z,96588.38
2023-03-17T06:07:51.693Z,96578.81
2023-03-17T06:10:00.626Z,96582.50
2023-03-17T06:12:06.861Z,96583.38
2023-03-17T06:14:11.599Z,96580.84
2023-03-17T06:16:16.711Z,96587.41
2023-03-17T06:18:24.178Z,96593.19
2023-03-17T06:20:28.909Z,96593.25
2023-03-17T06:22:33.688Z,96592.53
2023-03-17T06:24:38.711Z,96589.50
2023-03-17T06:26:43.955Z,96591.41
2023-03-17T06:28:48.632Z,96588.59
2023-03-17T06:30:53.436Z,96588.66
2023-03-17T06:32:58.325Z,96591.09
2023-03-17T06:35:07.432Z,96597.66
2023-03-17T06:37:12.396Z,96595.91
2023-03-17T06:39:18.505Z,96591.78
2023-03-17T06:41:23.620Z,96604.38
2023-03-17T06:43:28.616Z,96602.03
2023-03-17T06:45:34.692Z,96598.69
2023-03-17T06:47:40.051Z,96596.63
2023-03-17T06:49:44.783Z,96593.28
2023-03-17T06:51:52.362Z,96590.72
2023-03-17T06:53:57.121Z,96595.22
2023-03-17T06:56:02.287Z,96596.06
2023-03-17T06:58:07.138Z,96593.50
2023-03-17T07:00:15.985Z,96596.19
2023-03-17T07:02:20.697Z,96598.84
2023-03-17T07:04:25.498Z,96596.56
2023-03-17T07:06:31.124Z,96600.34
2023-03-17T07:08:39.164Z,96590.72
2023-03-17T07:10:45.961Z,96586.09
2023-03-17T07:12:51.146Z,96582.25
2023-03-17T07:14:56.256Z,96581.31
2023-03-17T07:17:01.268Z,96575.88
2023-03-17T07:19:07.420Z,96580.16
2023-03-17T07:21:12.262Z,96588.63
2023-03-17T07:23:18.432Z,96580.03
2023-03-17T07:25:26.011Z,96592.19
2023-03-17T07:27:31.442Z,96599.84
2023-03-17T07:29:37.092Z,96594.38
2023-03-17T07:31:44.981Z,96606.50
2023-03-17T07:33:50.778Z,96594.19
2023-03-17T07:35:55.886Z,96590.56
2023-03-17T07:38:00.689Z,96584.28
2023-03-17T07:40:06.410Z,96589.81
2023-03-17T07:42:17.537Z,96590.63
2023-03-17T07:44:22.777Z,96596.66
2023-03-17T07:46:28.005Z,96598.81
2023-03-17T07:48:33.517Z,96592.47
2023-03-17T07:50:42.886Z,96595.38
2023-03-17T07:52:47.724Z,96592.47
2023-03-17T07:54:53.345Z,96589.31
2023-03-17T07:56:58.630Z,96590.84
2023-03-17T07:59:08.027Z,96585.03
2023-03-17T08:01:13.238Z,96587.88
2023-03-17T08:03:19.412Z,96585.19
2023-03-17T08:05:24.374Z,96588.78
2023-03-17T08:07:29.311Z,96584.72
2023-03-17T08:09:34.065Z,96583.06
2023-03-17T08:11:39.711Z,96574.50
2023-03-17T08:13:44.551Z,96581.75
2023-03-17T08:15:52.256Z,96581.06
2023-03-17T08:17:57.359Z,96585.41
2023-03-17T08:20:02.542Z,96586.78
2023-03-17T08:22:07.938Z,96584.91
2023-03-17T08:24:13.095Z,96582.03
2023-03-17T08:26:18.791Z,96578.34
2023-03-17T08:28:24.044Z,96573.88
2023-03-17T08:30:31.545Z,96575.44
2023-03-17T08:32:41.309Z,96562.19
2023-03-17T08:34:48.197Z,96566.66
2023-03-17T08:36:53.522Z,96560.84
2023-03-17T08:38:58.424Z,96561.66
2023-03-17T08:41:04.695Z,96554.41
2023-03-17T08:43:10.881Z,96557.78
2023-03-17T08:45:16.753Z,96559.34
2023-03-17T08:47:21.871Z,96557.97
2023-03-17T08:49:29.618Z,96556.25
2023-03-17T08:51:37.216Z,96547.97
2023-03-17T08:53:43.027Z,96543.13
2023-03-17T08:55:47.970Z,96538.13
2023-03-17T08:57:53.058Z,96530.97
2023-03-17T08:59:57.981Z,96537.94
2023-03-17T09:02:03.161Z,96539.13
2023-03-17T09:04:08.992Z,96537.94
2023-03-17T09:06:16.896Z,96532.97
2023-03-17T09:08:21.948Z,96547.13
2023-03-17T09:10:27.467Z,96552.03
2023-03-17T09:12:34.227Z,96555.53
2023-03-17T09:14:43.878Z,96549.13
2023-03-17T09:16:50.369Z,96566.34
2023-03-17T09:18:55.291Z,96557.28
2023-03-17T09:21:02.470Z,96572.78
2023-03-17T09:23:12.867Z,96578.69
2023-03-17T09:25:18.061Z,96578.00
2023-03-17T09:27:23.583Z,96574.19
2023-03-17T09:29:29.185Z,96562.97
2023-03-17T09:31:34.067Z,96564.97
2023-03-17T09:33:38.738Z,96571.91
2023-03-17T09:35:44.047Z,96572.72
2023-03-17T09:37:50.014Z,96562.81
2023-03-17T09:39:58.002Z,96560.28
2023-03-17T09:42:22.945Z,96550.47
2023-03-17T09:44:40.153Z,96549.28
2023-03-17T09:46:55.310Z,96545.72
2023-03-17T09:49:04.499Z,96541.19
2023-03-17T09:51:12.551Z,96529.44
2023-03-17T09:53:21.992Z,96529.31
2023-03-17T09:55:33.814Z,96520.03
2023-03-17T09:57:40.852Z,96517.22
2023-03-17T09:59:48.095Z,96519.25
2023-03-17T10:01:55.240Z,96511.28
2023-03-17T10:04:00.009Z,96513.28
2023-03-17T10:06:19.059Z,96508.78
2023-03-17T10:08:31.626Z,96510.09
2023-03-17T10:10:48.550Z,96514.16
2023-03-17T10:13:05.549Z,96503.56
2023-03-17T10:15:21.105Z,96499.06
2023-03-17T10:17:29.047Z,96500.38
2023-03-17T10:19:38.129Z,96500.56
2023-03-17T10:21:52.588Z,96499.63
2023-03-17T10:23:58.444Z,96494.31
2023-03-17T10:26:10.645Z,96497.28
2023-03-17T10:28:27.814Z,96491.22
2023-03-17T10:30:35.792Z,96498.56
2023-03-17T10:32:42.501Z,96500.16
2023-03-17T10:34:48.735Z,96501.72
2023-03-17T10:36:57.752Z,96496.22
2023-03-17T10:39:03.259Z,96496.53
2023-03-17T10:41:16.997Z,96489.97
2023-03-17T10:43:23.542Z,96495.28
2023-03-17T10:45:32.550Z,96481.84
2023-03-17T10:47:40.055Z,96487.16
2023-03-17T10:49:47.301Z,96483.88
2023-03-17T10:51:55.322Z,96489.03
2023-03-17T10:54:04.020Z,96477.16
2023-03-17T10:56:21.155Z,96480.25
2023-03-17T10:58:41.820Z,96477.91
2023-03-17T11:01:00.417Z,96471.19
2023-03-17T11:03:13.917Z,96474.00
2023-03-17T11:05:24.674Z,96477.16
2023-03-17T11:07:32.484Z,96476.53
2023-03-17T11:09:39.416Z,96478.56
2023-03-17T11:11:51.584Z,96475.44
2023-03-17T11:14:05.152Z,96476.66
2023-03-17T11:16:13.539Z,96469.16
2023-03-17T11:18:23.945Z,96459.00
2023-03-17T11:20:54.041Z,96456.81
2023-03-17T11:23:05.502Z,96451.50
2023-03-17T11:25:16.253Z,96451.31
2023-03-17T11:27:32.544Z,96443.19
2023-03-17T11:29:51.964Z,96443.66
2023-03-17T11:32:02.773Z,96443.97
2023-03-17T11:34:14.229Z,96440.50
2023-03-17T11:36:36.355Z,96437.34
2023-03-17T11:38:47.147Z,96433.59
2023-03-17T11:41:30.453Z,96436.06
2023-03-17T11:43:44.028Z,96435.47
2023-03-17T11:45:55.423Z,96423.84
2023-03-17T11:48:16.137Z,96423.97
2023-03-17T11:50:31.176Z,96410.88
2023-03-17T11:52:55.414Z,96420.06
2023-03-17T11:55:10.231Z,96429.63
2023-03-17T11:57:20.524Z,96423.22
2023-03-17T11:59:37.479Z,96415.22
2023-03-17T12:01:54.967Z,96406.16
2023-03-17T12:04:12.373Z,96402.84
2023-03-17T12:06:21.037Z,96396.56
2023-03-17T12:08:33.144Z,96397.31
2023-03-17T12:10:43.955Z,96398.56
2023-03-17T12:12:53.817Z,96401.34
2023-03-17T12:15:05.408Z,96404.50
2023-03-17T12:17:18.622Z,96404.94
2023-03-17T12:19:29.009Z,96401.19
2023-03-17T12:21:38.747Z,96407.28
2023-03-17T12:23:50.531Z,96399.19
2023-03-17T12:26:02.562Z,96391.97
2023-03-17T12:28:16.670Z,96400.44
2023-03-17T12:30:33.226Z,96397.88
2023-03-17T12:32:43.092Z,96397.25
2023-03-17T12:34:55.431Z,96403.03
2023-03-17T12:37:02.182Z,96405.50
2023-03-17T12:39:13.369Z,96391.88
2023-03-17T12:41:34.459Z,96388.22
2023-03-17T12:43:47.757Z,96380.72
2023-03-17T12:46:09.779Z,96381.81
2023-03-17T12:48:47.311Z,96384.03
2023-03-17T12:51:11.593Z,96393.44
2023-03-17T12:53:32.658Z,96380.28
2023-03-17T12:55:38.398Z,96382.19
2023-03-17T12:57:45.111Z,96368.41
2023-03-17T12:59:52.344Z,96358.84
2023-03-17T13:02:08.946Z,96353.69
2023-03-17T13:04:27.073Z,96360.91
2023-03-17T13:06:34.869Z,96353.69
2023-03-17T13:08:43.792Z,96351.34
2023-03-17T13:10:49.247Z,96354.03
2023-03-17T13:13:13.834Z,96348.56
2023-03-17T13:15:47.192Z,96342.00
2023-03-17T13:18:12.771Z,96344.53
2023-03-17T13:20:21.792Z,96335.31
2023-03-17T13:22:36.701Z,96340.63
2023-03-17T13:24:51.098Z,96331.41
2023-03-17T13:27:02.043Z,96324.50
2023-03-17T13:29:26.851Z,96325.63
2023-03-17T13:31:36.985Z,96314.16
2023-03-17T13:33:52.209Z,96321.38
2023-03-17T13:36:19.211Z,96315.28
2023-03-17T13:38:52.518Z,96320.28
2023-03-17T13:41:46.482Z,96323.72
2023-03-17T13:44:05.886Z,96324.50
2023-03-17T13:46:30.492Z,96323.41
2023-03-17T13:48:38.736Z,96316.66
2023-03-17T13:50:46.841Z,96314.00
2023-03-17T13:52:56.884Z,96311.00
2023-03-17T13:55:06.073Z,96309.44
2023-03-17T13:57:29.654Z,96307.44
2023-03-17T13:59:38.274Z,96308.56
2023-03-17T14:01:49.716Z,96313.56
2023-03-17T14:03:55.702Z,96312.16
2023-03-17T14:06:06.609Z,96306.06
2023-03-17T14:08:20.282Z,96305.25
2023-03-17T14:10:28.241Z,96294.63
2023-03-17T14:12:41.228Z,96287.28
2023-03-17T14:14:52.316Z,96299.03
2023-03-17T14:17:03.867Z,96296.38
2023-03-17T14:19:20.590Z,96295.09
2023-03-17T14:21:33.110Z,96295.09
2023-03-17T14:23:37.986Z,96296.19
2023-03-17T14:25:43.578Z,96291.97
2023-03-17T14:27:51.033Z,96286.97
2023-03-17T14:29:56.206Z,96286.66
2023-03-17T14:32:06.657Z,96287.28
2023-03-17T14:34:16.703Z,96290.28
2023-03-17T14:36:22.430Z,96278.84
2023-03-17T14:38:32.413Z,96287.16
2023-03-17T14:40:37.153Z,96284.19
2023-03-17T14:42:41.849Z,96278.41
2023-03-17T14:44:47.080Z,96274.63
2023-03-17T14:46:51.837Z,96278.09
2023-03-17T14:49:02.604Z,96273.09
2023-03-17T14:51:11.930Z,96269.63
2023-03-17T14:53:18.493Z,96270.41
2023-03-17T14:55:34.477Z,96274.19
2023-03-17T14:57:40.752Z,96268.53
2023-03-17T14:59:47.186Z,96276.19
2023-03-17T15:01:58.060Z,96270.41
2023-03-17T15:04:10.693Z,96281.06
2023-03-17T15:06:26.589Z,96276.03
2023-03-17T15:08:59.557Z,96272.94
2023-03-17T15:11:08.480Z,96269.81
2023-03-17T15:13:15.531Z,96267.94
2023-03-17T15:15:28.081Z,96267.94
2023-03-17T15:17:36.487Z,96262.16
2023-03-17T15:19:43.916Z,96260.59
2023-03-17T15:21:48.863Z,96260.59
2023-03-17T15:23:53.782Z,96265.91
2023-03-17T15:25:59.887Z,96260.91
2023-03-17T15:28:13.832Z,96261.22
2023-03-17T15:30:20.136Z,96258.91
2023-03-17T15:32:27.349Z,96255.75
2023-03-17T15:34:32.090Z,96251.09
2023-03-17T15:36:37.018Z,96260.16
2023-03-17T15:38:42.133Z,96263.13
2023-03-17T15:40:46.810Z,96266.13
2023-03-17T15:42:51.910Z,96263.00
2023-03-17T15:45:00.359Z,96270.53
2023-03-17T15:47:06.106Z,96259.44
2023-03-17T15:49:13.663Z,96252.53
2023-03-17T15:51:20.933Z,96258.66
2023-03-17T15:53:26.216Z,96258.66
2023-03-17T15:55:33.051Z,96258.66
2023-03-17T15:57:37.737Z,96251.00
2023-03-17T15:59:42.877Z,96249.44
2023-03-17T16:01:50.757Z,96242.84
2023-03-17T16:03:56.174Z,96242.84
2023-03-17T16:06:01.896Z,96239.75
2023-03-17T16:08:07.029Z,96241.16
2023-03-17T16:10:19.383Z,96242.25
2023-03-17T16:12:24.248Z,96234.28
2023-03-17T16:14:29.454Z,96238.06
2023-03-17T16:16:39.346Z,96231.47
2023-03-17T16:18:47.164Z,96233.38
2023-03-17T16:20:53.436Z,96234.47
2023-03-17T16:23:02.079Z,96240.88
2023-03-17T16:25:09.501Z,96238.53
2023-03-17T16:27:17.736Z,96239.63
2023-03-17T16:29:23.731Z,96236.97
2023-03-17T16:31:31.169Z,96231.97
2023-03-17T16:33:42.261Z,96241.06
2023-03-17T16:35:52.524Z,96237.16
2023-03-17T16:37:58.136Z,96236.69
2023-03-17T16:40:03.437Z,96238.13
2023-03-17T16:42:25.214Z,96233.44
2023-03-17T16:44:30.137Z,96232.19
2023-03-17T16:46:37.166Z,96232.50
2023-03-17T16:48:42.187Z,96239.69
2023-03-17T16:50:50.140Z,96240.66
2023-03-17T16:52:55.321Z,96237.84
2023-03-17T16:55:00.186Z,96244.59
2023-03-17T16:57:07.724Z,96242.56
2023-03-17T16:59:18.012Z,96247.41
2023-03-17T17:01:25.575Z,96246.16
2023-03-17T17:03:31.230Z,96249.47
2023-03-17T17:05:36.359Z,96241.31
2023-03-17T17:07:43.759Z,96237.72
2023-03-17T17:09:48.692Z,96238.03
2023-03-17T17:11:53.774Z,96241.31
2023-03-17T17:14:00.052Z,96241.19
2023-03-17T17:16:05.248Z,96247.91
2023-03-17T17:18:14.730Z,96239.75
2023-03-17T17:20:22.900Z,96242.28
2023-03-17T17:22:28.024Z,96250.06
2023-03-17T17:24:38.108Z,96249.50
2023-03-17T17:26:43.119Z,96247.75
2023-03-17T17:28:47.800Z,96248.38
2023-03-17T17:30:53.537Z,96250.41
2023-03-17T17:32:59.909Z,96242.63
2023-03-17T17:35:05.090Z,96241.97
2023-03-17T17:37:12.592Z,96244.00
2023-03-17T17:39:17.682Z,96240.41
2023-03-17T17:41:25.259Z,96239.78
2023-03-17T17:43:30.213Z,96244.47
2023-03-17T17:45:34.923Z,96238.22
2023-03-17T17:47:39.706Z,96246.31
2023-03-17T17:49:44.593Z,96235.88
2023-03-17T17:51:49.887Z,96239.47
2023-03-17T17:53:54.579Z,96236.19
2023-03-17T17:55:59.579Z,96233.66
2023-03-17T17:58:07.034Z,96231.44
2023-03-17T18:00:16.578Z,96235.81
2023-03-17T18:02:21.513Z,96243.13
2023-03-17T18:04:26.537Z,96235.28
2023-03-17T18:06:31.506Z,96230.44
2023-03-17T18:08:37.029Z,96241.19
2023-03-17T18:10:41.643Z,96239.75
2023-03-17T18:12:46.706Z,96245.19
2023-03-17T18:14:54.046Z,96239.56
2023-03-17T18:16:59.029Z,96245.75
2023-03-17T18:19:03.962Z,96243.56
2023-03-17T18:21:09.043Z,96243.38
2023-03-17T18:23:13.760Z,96245.88
2023-03-17T18:25:19.636Z,96238.03
2023-03-17T18:27:24.446Z,96237.38
2023-03-17T18:29:29.160Z,96240.47
2023-03-17T18:31:41.783Z,96244.66
2023-03-17T18:33:49.325Z,96239.00
2023-03-17T18:35:55.885Z,96238.03
2023-03-17T18:38:01.580Z,96250.00
2023-03-17T18:40:18.600Z,96248.28
2023-03-17T18:42:24.104Z,96241.22
2023-03-17T18:44:29.226Z,96246.31
2023-03-17T18:46:37.027Z,96243.50
2023-03-17T18:48:42.393Z,96243.00
2023-03-17T18:50:47.454Z,96242.06
2023-03-17T18:52:53.142Z,96244.97
2023-03-17T18:54:57.880Z,96242.16
2023-03-17T18:57:02.964Z,96245.09
2023-03-17T18:59:07.753Z,96247.56
2023-03-17T19:01:12.756Z,96242.38
2023-03-17T19:03:20.950Z,96238.31
2023-03-17T19:05:26.059Z,96238.09
2023-03-17T19:07:30.868Z,96234.00
2023-03-17T19:09:35.556Z,96236.78
2023-03-17T19:11:41.457Z,96239.53
2023-03-17T19:13:46.614Z,96235.91
2023-03-17T19:15:52.259Z,96238.69
2023-03-17T19:17:57.343Z,96241.91
2023-03-17T19:20:05.092Z,96246.69
2023-03-17T19:22:11.190Z,96244.34
2023-03-17T19:24:16.347Z,96244.19
2023-03-17T19:26:21.251Z,96245.84
2023-03-17T19:28:26.542Z,96248.28
2023-03-17T19:30:31.735Z,96239.09
2023-03-17T19:32:36.913Z,96243.41
2023-03-17T19:34:41.730Z,96241.38
2023-03-17T19:36:49.488Z,96247.22
2023-03-17T19:38:54.166Z,96247.03
2023-03-17T19:40:59.223Z,96249.50
2023-03-17T19:43:04.638Z,96247.41
2023-03-17T19:45:10.857Z,96246.94
2023-03-17T19:47:15.595Z,96252.03
2023-03-17T19:49:21.189Z,96250.25
2023-03-17T19:51:27.252Z,96256.44
2023-03-17T19:53:34.827Z,96247.50
2023-03-17T19:55:39.896Z,96254.19
2023-03-17T19:57:44.787Z,96251.31
2023-03-17T19:59:49.569Z,96250.81
2023-03-17T20:01:54.375Z,96254.06
2023-03-17T20:03:59.267Z,96256.78
2023-03-17T20:06:06.492Z,96252.38
2023-03-17T20:08:11.813Z,96257.72
2023-03-17T20:10:19.521Z,96262.06
2023-03-17T20:12:25.300Z,96252.56
2023-03-17T20:14:30.570Z,96252.34
2023-03-17T20:16:37.032Z,96262.44
2023-03-17T20:18:41.998Z,96252.16
2023-03-17T20:20:49.520Z,96249.81
2023-03-17T20:22:54.616Z,96260.66
2023-03-17T20:24:59.420Z,96256.72
2023-03-17T20:27:08.074Z,96255.75
2023-03-17T20:29:14.520Z,96250.25
2023-03-17T20:31:20.011Z,96257.47
2023-03-17T20:33:25.069Z,96256.78
2023-03-17T20:35:30.844Z,96254.25
2023-03-17T20:37:35.685Z,96261.16
2023-03-17T20:39:40.878Z,96255.94
2023-03-17T20:41:45.579Z,96256.03
2023-03-17T20:43:53.966Z,96250.06
2023-03-17T20:45:58.961Z,96252.47
2023-03-17T20:48:05.054Z,96246.69
2023-03-17T20:50:10.892Z,96262.03
2023-03-17T20:52:17.562Z,96257.31
2023-03-17T20:54:23.370Z,96259.97
2023-03-17T20:56:29.989Z,96268.44
2023-03-17T20:58:34.817Z,96270.91
2023-03-17T21:00:42.387Z,96272.53
2023-03-17T21:02:50.409Z,96275.75
2023-03-17T21:04:55.370Z,96283.44
2023-03-17T21:07:00.163Z,96286.63
2023-03-17T21:09:05.274Z,96283.78
2023-03-17T21:11:16.125Z,96282.00
2023-03-17T21:13:20.958Z,96288.13
2023-03-17T21:15:25.711Z,96290.56
2023-03-17T21:17:33.574Z,96291.69
2023-03-17T21:19:38.849Z,96299.63
2023-03-17T21:21:43.676Z,96297.56
2023-03-17T21:23:49.083Z,96305.25
2023-03-17T21:25:58.282Z,96305.28
2023-03-17T21:28:04.084Z,96308.50
2023-03-17T21:30:12.108Z,96305.38
2023-03-17T21:32:16.902Z,96309.84
2023-03-17T21:34:24.725Z,96312.47
2023-03-17T21:36:29.664Z,96314.34
2023-03-17T21:38:34.815Z,96307.50
2023-03-17T21:40:39.873Z,96315.69
2023-03-17T21:42:45.901Z,96316.72
2023-03-17T21:44:52.168Z,96309.91
2023-03-17T21:46:57.706Z,96304.19
2023-03-17T21:49:03.588Z,96306.59
2023-03-17T21:51:11.718Z,96307.44
2023-03-17T21:53:17.337Z,96306.13
2023-03-17T21:55:22.243Z,96315.94
2023-03-17T21:57:27.892Z,96304.69
2023-03-17T21:59:35.800Z,96300.78
2023-03-17T22:01:41.092Z,96312.97
2023-03-17T22:03:46.232Z,96316.94
2023-03-17T22:05:51.367Z,96320.91
2023-03-17T22:07:58.738Z,96323.56
2023-03-17T22:10:07.071Z,96321.00
2023-03-17T22:12:12.694Z,96312.84
2023-03-17T22:14:20.107Z,96306.31
2023-03-17T22:16:25.178Z,96311.59
2023-03-17T22:18:30.124Z,96319.03
2023-03-17T22:20:35.143Z,96326.72
2023-03-17T22:22:39.889Z,96331.78
2023-03-17T22:24:47.509Z,96322.56
2023-03-17T22:26:52.507Z,96324.94
2023-03-17T22:28:58.494Z,96321.25
2023-03-17T22:31:05.186Z,96320.97
2023-03-17T22:33:10.040Z,96317.28
2023-03-17T22:35:14.775Z,96310.94
2023-03-17T22:37:19.513Z,96307.53
2023-03-17T22:39:24.253Z,96304.91
2023-03-17T22:41:33.908Z,96314.91
2023-03-17T22:43:40.233Z,96309.91
2023-03-17T22:45:44.997Z,96313.91
2023-03-17T22:47:49.704Z,96316.00
2023-03-17T22:49:54.439Z,96318.91
2023-03-17T22:51:59.392Z,96304.97
2023-03-17T22:54:04.321Z,96312.34
2023-03-17T22:56:11.058Z,96307.91
2023-03-17T22:58:19.474Z,96322.16
2023-03-17T23:00:25.780Z,96322.66
2023-03-17T23:02:30.845Z,96328.47
2023-03-17T23:04:36.114Z,96327.22
2023-03-17T23:06:41.662Z,96332.75
2023-03-17T23:08:47.585Z,96344.59
2023-03-17T23:10:54.119Z,96351.19
2023-03-17T23:12:58.981Z,96343.84
2023-03-17T23:15:08.025Z,96340.66
2023-03-17T23:17:13.262Z,96349.09
2023-03-17T23:19:18.289Z,96344.38
2023-03-17T23:21:26.609Z,96352.84
2023-03-17T23:23:31.737Z,96348.09
2023-03-17T23:25:36.794Z,96347.59
2023-03-17T23:27:41.633Z,96353.34
2023-03-17T23:29:46.620Z,96352.84
2023-03-17T23:31:54.743Z,96354.97
2023-03-17T23:33:59.714Z,96357.88
2023-03-17T23:36:04.487Z,96365.00
2023-03-17T23:38:09.925Z,96365.56
2023-03-17T23:40:17.404Z,96363.72
2023-03-17T23:42:22.445Z,96363.72
2023-03-17T23:44:27.312Z,96369.84
2023-03-17T23:46:32.116Z,96359.84
2023-03-17T23:48:42.508Z,96369.59
2023-03-17T23:50:47.499Z,96369.63
2023-03-17T23:52:54.201Z,96366.72
2023-03-17T23:54:59.463Z,96366.75
2023-03-17T23:57:04.225Z,96377.00
2023-03-17T23:59:09.842Z,96368.06
